Time;durP1;ratioP1;P1;durP2;ratioP2;P2;SDS_P1;SDS_P2;PMS_P1;PMS_P2;Temp;Humidity;BMP_temperature;BMP_pressure;BME280_temperature;BME280_humidity;BME280_pressure;Samples;Min_cycle;Max_cycle;Signal;HPM_P1;HPM_P2
2021/12/19 00:01:29;;;;;;;7.72;6.12;;;;;;;1.43;97.44;99268.29;1779170;79;21065;-83
2021/12/19 00:09:07;;;;;;;6.35;5.78;;;;;;;1.46;97.93;99252.80;1780539;80;21083;-73
2021/12/19 00:11:34;;;;;;;6.55;5.47;;;;;;;1.48;97.94;99245.48;1788944;79;21047;-74
2021/12/19 00:14:03;;;;;;;5.28;4.78;;;;;;;1.50;97.91;99239.45;1790977;79;20995;-74
2021/12/19 00:16:30;;;;;;;4.90;4.40;;;;;;;1.52;97.95;99230.80;1781499;80;21007;-86
2021/12/19 00:18:56;;;;;;;6.42;5.83;;;;;;;1.55;98.02;99228.23;1775269;80;21018;-76
2021/12/19 00:21:25;;;;;;;6.12;5.47;;;;;;;1.54;97.95;99230.58;1749523;81;21724;-74
2021/12/19 00:23:52;;;;;;;6.17;5.58;;;;;;;1.55;98.04;99226.91;1770838;81;20977;-77
2021/12/19 00:26:18;;;;;;;5.58;5.08;;;;;;;1.54;97.99;99241.17;1763407;80;21559;-80
2021/12/19 00:28:46;;;;;;;5.70;4.83;;;;;;;1.53;98.00;99221.02;1792136;80;21540;-78
2021/12/19 00:31:13;;;;;;;6.50;5.90;;;;;;;1.53;98.07;99219.70;1768732;80;21336;-82
2021/12/19 00:33:39;;;;;;;6.20;5.05;;;;;;;1.52;98.19;99210.11;1771684;80;22129;-76
2021/12/19 00:36:06;;;;;;;6.28;4.97;;;;;;;1.53;98.21;99207.27;1770740;80;21579;-78
2021/12/19 00:38:32;;;;;;;6.12;5.20;;;;;;;1.56;98.23;99190.12;1720730;82;20937;-82
2021/12/19 00:40:59;;;;;;;6.65;5.62;;;;;;;1.58;98.23;99186.78;1722342;80;21021;-89
2021/12/19 00:43:53;;;;;;;6.50;5.60;;;;;;;1.58;98.14;99182.80;1776251;80;21002;-89
2021/12/19 00:45:53;;;;;;;5.15;4.65;;;;;;;1.59;98.11;99174.62;1734703;82;21742;-89
2021/12/19 00:48:20;;;;;;;7.00;5.58;;;;;;;1.58;98.07;99178.83;1721004;82;21524;-81
2021/12/19 00:50:46;;;;;;;5.55;5.05;;;;;;;1.57;98.11;99155.98;1746865;82;20987;-84
2021/12/19 00:53:12;;;;;;;6.45;5.47;;;;;;;1.60;98.24;99142.32;1772811;80;20985;-88
2021/12/19 00:55:39;;;;;;;5.92;5.33;;;;;;;1.63;98.27;99142.72;1773583;80;21041;-86
2021/12/19 00:58:05;;;;;;;7.08;6.37;;;;;;;1.68;98.28;99138.94;1759558;80;21131;-81
2021/12/19 01:00:34;;;;;;;6.28;5.47;;;;;;;1.69;98.07;99139.25;1746296;82;20897;-77
2021/12/19 01:03:00;;;;;;;7.28;5.85;;;;;;;1.68;98.03;99150.05;1769986;80;20986;-82
2021/12/19 01:05:29;;;;;;;6.58;5.85;;;;;;;1.67;97.97;99131.22;1773242;80;21010;-77
2021/12/19 01:07:55;;;;;;;6.17;5.65;;;;;;;1.68;98.00;99125.69;1773336;80;21531;-79
2021/12/19 01:10:22;;;;;;;5.33;4.83;;;;;;;1.68;97.98;99123.03;1773523;81;21089;-77
2021/12/19 01:12:50;;;;;;;6.10;5.28;;;;;;;1.70;98.03;99139.56;1759619;80;21474;-76
2021/12/19 01:15:17;;;;;;;6.25;5.60;;;;;;;1.73;98.01;99131.69;1720874;82;20956;-76
2021/12/19 01:17:43;;;;;;;8.43;5.90;;;;;;;1.72;97.90;99102.26;1757698;80;20959;-86
2021/12/19 01:20:20;;;;;;;7.45;6.00;;;;;;;1.71;97.91;99084.20;1715858;83;21007;-79
2021/12/19 01:22:46;;;;;;;5.95;5.28;;;;;;;1.67;97.99;99071.58;1747283;81;21159;-79
2021/12/19 01:25:13;;;;;;;5.97;5.37;;;;;;;1.68;98.12;99065.23;1744343;80;21003;-81
2021/12/19 01:27:39;;;;;;;7.17;4.92;;;;;;;1.70;98.13;99063.20;1789135;80;21030;-76
2021/12/19 01:30:07;;;;;;;6.50;5.08;;;;;;;1.73;98.09;99058.80;1788732;80;20908;-78
2021/12/19 01:32:33;;;;;;;5.90;5.22;;;;;;;1.74;98.05;99060.44;1778260;80;21081;-77
2021/12/19 01:35:00;;;;;;;6.62;5.78;;;;;;;1.73;97.99;99058.29;1739731;82;21096;-78
2021/12/19 01:37:27;;;;;;;8.45;5.78;;;;;;;1.72;98.01;99061.17;1753078;81;20934;-83
2021/12/19 01:39:55;;;;;;;5.37;4.87;;;;;;;1.74;98.10;99047.18;1760043;80;20970;-84
2021/12/19 01:42:21;;;;;;;5.53;4.90;;;;;;;1.71;98.08;99029.88;1789381;80;21030;-81
2021/12/19 01:44:48;;;;;;;5.17;4.67;;;;;;;1.71;98.23;99022.43;1767111;80;21059;-82
2021/12/19 01:47:16;;;;;;;5.67;5.17;;;;;;;1.73;98.34;98996.00;1766662;80;21037;-83
2021/12/19 01:49:42;;;;;;;7.78;5.60;;;;;;;1.75;98.38;99003.76;1771121;80;20925;-78
2021/12/19 01:52:10;;;;;;;6.42;5.22;;;;;;;1.73;98.36;98994.67;1770271;81;21530;-85
2021/12/19 01:54:38;;;;;;;6.15;5.55;;;;;;;1.69;98.39;98987.36;1737795;81;21318;-72
2021/12/19 01:57:04;;;;;;;5.10;4.67;;;;;;;1.65;98.52;98994.11;1712912;82;21035;-71
2021/12/19 01:59:33;;;;;;;6.12;4.30;;;;;;;1.65;98.78;98979.02;1731617;81;21263;-76
2021/12/19 02:01:59;;;;;;;7.42;6.50;;;;;;;1.66;98.82;98959.96;1800671;79;21045;-81
2021/12/19 02:04:30;;;;;;;5.62;5.12;;;;;;;1.66;98.99;98960.78;1785685;80;20975;-77
2021/12/19 02:06:54;;;;;;;6.08;5.45;;;;;;;1.67;98.95;98962.92;1799075;78;21050;-80
2021/12/19 02:09:20;;;;;;;4.90;4.47;;;;;;;1.66;98.93;98964.75;1810984;78;21073;-79
2021/12/19 02:11:47;;;;;;;6.28;5.42;;;;;;;1.65;98.99;98963.63;1800285;79;21099;-84
2021/12/19 02:14:13;;;;;;;6.00;5.40;;;;;;;1.64;99.11;98963.32;1777557;79;21538;-84
2021/12/19 02:16:40;;;;;;;6.03;5.42;;;;;;;1.66;99.25;98962.61;1775585;79;21725;-80
2021/12/19 02:19:07;;;;;;;6.40;5.80;;;;;;;1.69;99.29;98943.12;1794608;79;20970;-83
2021/12/19 02:21:34;;;;;;;6.12;5.47;;;;;;;1.69;99.26;98946.28;1794639;79;21021;-80
2021/12/19 02:24:04;;;;;;;6.92;4.95;;;;;;;1.69;99.18;98938.33;1773057;80;20992;-86
2021/12/19 02:26:32;;;;;;;5.53;5.03;;;;;;;1.68;99.26;98928.74;1722897;82;21040;-90
2021/12/19 02:29:01;;;;;;;6.00;5.40;;;;;;;1.68;99.30;98930.88;1755230;80;21049;-85
2021/12/19 02:31:30;;;;;;;6.20;5.25;;;;;;;1.69;99.37;98927.73;1798904;79;21530;-80
2021/12/19 02:34:08;;;;;;;5.65;5.05;;;;;;;1.70;99.46;98920.90;1794389;79;21574;-79
2021/12/19 02:36:48;;;;;;;6.75;5.85;;;;;;;1.72;99.46;98916.21;1771809;80;21156;-76
2021/12/19 02:39:38;;;;;;;5.80;5.15;;;;;;;1.71;99.38;98922.53;1793558;79;20942;-77
2021/12/19 02:49:50;;;;;;;6.45;5.15;;;;;;;1.71;99.66;98880.63;1794768;79;20992;-80
2021/12/19 02:52:17;;;;;;;5.12;4.62;;;;;;;1.73;99.75;98871.94;1794966;79;21089;-76
2021/12/19 02:54:44;;;;;;;6.37;5.87;;;;;;;1.71;99.75;98864.73;1766792;81;20988;-77
2021/12/19 02:57:11;;;;;;;5.33;4.83;;;;;;;1.71;99.87;98861.57;1781439;80;21009;-75
2021/12/19 02:59:37;;;;;;;5.30;4.80;;;;;;;1.72;99.99;98875.64;1793622;80;20957;-75
2021/12/19 03:02:03;;;;;;;6.08;5.47;;;;;;;1.72;100.00;98834.56;1794725;80;21143;-75
2021/12/19 03:04:30;;;;;;;6.15;5.05;;;;;;;1.68;100.00;98822.22;1772882;79;21008;-76
2021/12/19 03:06:56;;;;;;;6.35;5.78;;;;;;;1.65;100.00;98823.98;1786679;80;21519;-75
2021/12/19 03:09:47;;;;;;;6.10;5.12;;;;;;;1.65;100.00;98814.71;1794467;79;20978;-76
2021/12/19 03:12:37;;;;;;;5.30;4.80;;;;;;;1.63;100.00;98831.33;1793024;79;20942;-77
2021/12/19 03:20:11;;;;;;;6.08;5.47;;;;;;;1.68;100.00;98802.34;1786127;80;21539;-76
2021/12/19 03:22:37;;;;;;;5.72;5.12;;;;;;;1.67;100.00;98806.05;1764067;80;21116;-76
2021/12/19 03:25:05;;;;;;;5.65;4.90;;;;;;;1.64;100.00;98795.86;1784000;80;21078;-80
2021/12/19 03:27:32;;;;;;;4.87;4.35;;;;;;;1.62;100.00;98804.55;1771924;80;22436;-82
2021/12/19 03:29:58;;;;;;;6.62;6.00;;;;;;;1.62;100.00;98789.98;1788678;80;21043;-80
2021/12/19 03:32:26;;;;;;;4.65;4.20;;;;;;;1.61;100.00;98784.38;1764193;80;20981;-78
2021/12/19 03:34:52;;;;;;;4.70;4.30;;;;;;;1.64;100.00;98765.89;1786289;80;21031;-84
2021/12/19 03:37:18;;;;;;;5.58;4.97;;;;;;;1.64;100.00;98783.93;1785995;80;21085;-82
2021/12/19 03:39:56;;;;;;;5.90;5.35;;;;;;;1.64;100.00;98758.75;1787750;80;21097;-87
2021/12/19 03:42:13;;;;;;;5.53;4.90;;;;;;;1.61;100.00;98780.39;1788680;80;20979;-79
2021/12/19 03:44:40;;;;;;;4.45;4.05;;;;;;;1.61;100.00;98747.78;1788162;80;21522;-81
2021/12/19 03:47:06;;;;;;;5.22;4.42;;;;;;;1.60;100.00;98744.31;1786960;80;21539;-81
2021/12/19 03:49:33;;;;;;;5.22;4.53;;;;;;;1.59;100.00;98722.81;1786977;80;21523;-78
2021/12/19 03:52:00;;;;;;;6.03;4.85;;;;;;;1.61;100.00;98741.16;1764245;80;21068;-80
2021/12/19 03:54:26;;;;;;;5.62;4.92;;;;;;;1.63;100.00;98721.89;1766637;80;20923;-76
2021/12/19 03:56:52;;;;;;;5.67;5.08;;;;;;;1.62;100.00;98715.78;1788991;80;20986;-79
2021/12/19 03:59:18;;;;;;;5.45;4.60;;;;;;;1.60;100.00;98708.55;1788047;80;21031;-79
2021/12/19 04:01:50;;;;;;;5.53;4.72;;;;;;;1.58;100.00;98693.36;1786159;80;21041;-81
2021/12/19 04:04:13;;;;;;;5.28;4.60;;;;;;;1.56;100.00;98690.14;1785780;80;21304;-75
2021/12/19 04:06:40;;;;;;;5.30;4.72;;;;;;;1.58;100.00;98689.94;1764191;80;21649;-79
2021/12/19 04:09:06;;;;;;;5.97;4.72;;;;;;;1.57;100.00;98673.22;1790787;80;20978;-80
2021/12/19 04:11:33;;;;;;;6.12;4.78;;;;;;;1.61;100.00;98684.19;1789056;80;20891;-80
2021/12/19 04:13:59;;;;;;;5.80;4.25;;;;;;;1.64;100.00;98664.69;1734626;80;21046;-83
2021/12/19 04:16:27;;;;;;;5.25;4.50;;;;;;;1.68;100.00;98660.56;1791721;77;21025;-87
2021/12/19 04:18:54;;;;;;;5.10;4.60;;;;;;;1.68;100.00;98659.24;1838493;77;20959;-82
2021/12/19 04:21:21;;;;;;;7.15;4.75;;;;;;;1.70;100.00;98653.73;1822417;77;21106;-82
2021/12/19 04:23:49;;;;;;;6.17;5.55;;;;;;;1.70;100.00;98651.08;1817176;79;20975;-81
2021/12/19 04:26:15;;;;;;;6.00;4.67;;;;;;;1.70;100.00;98647.92;1819802;77;21681;-78
2021/12/19 04:28:42;;;;;;;6.08;5.22;;;;;;;1.71;100.00;98645.58;1824787;77;21539;-79
2021/12/19 04:31:08;;;;;;;5.15;4.65;;;;;;;1.73;100.00;98655.42;1824452;78;21004;-80
2021/12/19 04:33:38;;;;;;;7.62;6.90;;;;;;;1.75;100.00;98641.96;1801309;78;20995;-78
2021/12/19 04:36:06;;;;;;;7.75;6.12;;;;;;;1.76;100.00;98638.29;1801425;78;20968;-80
2021/12/19 04:39:04;;;;;;;6.25;5.40;;;;;;;1.77;100.00;98639.10;1824424;78;21054;-78
2021/12/19 04:41:26;;;;;;;5.92;5.33;;;;;;;1.79;100.00;98643.14;1823106;77;21134;-81
2021/12/19 04:52:00;;;;;;;6.78;6.08;;;;;;;1.87;100.00;98605.73;1784230;79;21024;-82
2021/12/19 05:02:08;;;;;;;6.85;5.05;;;;;;;1.92;100.00;98570.09;1827515;77;21509;-81
2021/12/19 05:15:26;;;;;;;6.80;6.15;;;;;;;2.02;100.00;98557.64;1801455;78;21039;-78
2021/12/19 05:17:49;;;;;;;5.58;4.80;;;;;;;2.01;100.00;98541.47;1800798;78;21084;-79
2021/12/19 05:20:22;;;;;;;6.28;5.58;;;;;;;2.02;100.00;98536.44;1816660;78;20971;-77
2021/12/19 05:22:49;;;;;;;5.08;4.62;;;;;;;2.03;100.00;98539.38;1799302;78;20987;-77
2021/12/19 05:25:17;;;;;;;5.67;5.03;;;;;;;2.04;100.00;98535.70;1777472;79;20937;-77
2021/12/19 05:27:48;;;;;;;5.03;3.98;;;;;;;2.06;100.00;98541.61;1819806;78;20922;-78
2021/12/19 05:30:15;;;;;;;5.25;4.75;;;;;;;2.07;100.00;98516.17;1776133;79;21030;-77
2021/12/19 05:32:43;;;;;;;4.65;4.20;;;;;;;2.09;100.00;98521.27;1800750;79;21761;-88
2021/12/19 05:35:11;;;;;;;5.80;4.97;;;;;;;2.12;100.00;98518.15;1797969;79;21031;-82
2021/12/19 05:45:52;;;;;;;6.85;5.28;;;;;;;2.21;100.00;98503.54;1781785;80;21166;-81
2021/12/19 05:48:18;;;;;;;8.25;5.67;;;;;;;2.23;100.00;98502.00;1782103;80;21019;-79
2021/12/19 05:50:45;;;;;;;12.03;5.90;;;;;;;2.23;100.00;98480.78;1800132;78;21510;-79
2021/12/19 05:53:11;;;;;;;5.97;4.67;;;;;;;2.26;100.00;98474.50;1775632;79;21018;-80
2021/12/19 05:55:39;;;;;;;5.00;4.50;;;;;;;2.28;100.00;98472.95;1767018;81;21006;-78
2021/12/19 05:58:05;;;;;;;6.42;5.37;;;;;;;2.31;100.00;98443.31;1785851;79;21108;-79
2021/12/19 06:00:32;;;;;;;5.12;4.62;;;;;;;2.34;100.00;98449.52;1753805;79;20976;-79
2021/12/19 06:03:01;;;;;;;7.30;5.75;;;;;;;2.37;100.00;98468.43;1795684;79;20927;-78
2021/12/19 06:05:27;;;;;;;6.90;6.20;;;;;;;2.39;100.00;98444.33;1789228;80;20991;-79
2021/12/19 06:07:54;;;;;;;7.47;5.40;;;;;;;2.39;100.00;98453.11;1778065;79;21477;-79
2021/12/19 06:10:20;;;;;;;6.50;5.83;;;;;;;2.38;100.00;98436.08;1810746;78;21117;-80
2021/12/19 06:12:47;;;;;;;5.65;5.15;;;;;;;2.37;100.00;98423.84;1741930;81;20893;-79
2021/12/19 06:15:15;;;;;;;4.65;4.25;;;;;;;2.42;100.00;98410.70;1768877;80;20987;-79
2021/12/19 06:17:44;;;;;;;5.17;4.67;;;;;;;2.45;100.00;98435.44;1769473;80;21030;-78
2021/12/19 06:20:11;;;;;;;4.83;4.33;;;;;;;2.50;100.00;98415.15;1817335;78;21014;-79
2021/12/19 06:22:39;;;;;;;8.43;6.22;;;;;;;2.54;100.00;98411.00;1825092;78;21764;-81
2021/12/19 06:25:06;;;;;;;5.33;4.83;;;;;;;2.54;100.00;98403.03;1824774;78;20916;-80
2021/12/19 06:27:33;;;;;;;6.08;5.47;;;;;;;2.54;100.00;98401.70;1797151;78;21009;-79
2021/12/19 06:29:59;;;;;;;6.25;5.50;;;;;;;2.55;100.00;98408.64;1818188;77;21066;-78
2021/12/19 06:32:26;;;;;;;8.45;5.40;;;;;;;2.55;100.00;98387.92;1801459;78;20937;-79
2021/12/19 06:34:52;;;;;;;7.12;5.08;;;;;;;2.57;100.00;98403.11;1824125;78;21037;-82
2021/12/19 06:37:18;;;;;;;6.97;5.65;;;;;;;2.58;100.00;98403.41;1823704;78;21036;-83
2021/12/19 06:39:45;;;;;;;6.78;5.83;;;;;;;2.61;100.00;98367.92;1801955;78;20884;-81
2021/12/19 06:42:11;;;;;;;8.60;6.33;;;;;;;2.63;100.00;98372.49;1801433;78;21516;-81
2021/12/19 06:44:37;;;;;;;6.30;5.70;;;;;;;2.67;100.00;98350.27;1824790;77;21614;-80
2021/12/19 06:47:07;;;;;;;8.80;6.78;;;;;;;2.67;100.00;98362.73;1819981;78;22134;-80
2021/12/19 06:49:33;;;;;;;7.33;6.08;;;;;;;2.64;100.00;98341.42;1828482;78;20920;-79
2021/12/19 06:52:02;;;;;;;6.12;5.20;;;;;;;2.66;100.00;98348.64;1824797;78;21045;-83
2021/12/19 06:54:28;;;;;;;7.97;7.15;;;;;;;2.67;100.00;98348.94;1826531;78;21118;-82
2021/12/19 06:56:55;;;;;;;7.10;6.40;;;;;;;2.70;100.00;98339.69;1830873;78;21000;-81
2021/12/19 06:59:22;;;;;;;8.45;6.70;;;;;;;2.70;100.00;98327.75;1828581;77;21129;-80
2021/12/19 07:01:50;;;;;;;9.40;6.97;;;;;;;2.71;100.00;98337.33;1831399;77;21470;-80
2021/12/19 07:04:16;;;;;;;7.67;6.65;;;;;;;2.72;100.00;98344.27;1802430;78;20995;-79
2021/12/19 07:06:44;;;;;;;7.47;6.47;;;;;;;2.75;100.00;98352.56;1801734;78;21145;-80
2021/12/19 07:09:11;;;;;;;9.53;7.62;;;;;;;2.76;100.00;98326.31;1825297;78;21117;-78
2021/12/19 07:11:38;;;;;;;8.25;6.28;;;;;;;2.77;100.00;98337.73;1829151;78;21047;-84
2021/12/19 07:14:04;;;;;;;7.97;7.17;;;;;;;2.76;100.00;98354.70;1776584;79;21018;-85
2021/12/19 07:16:31;;;;;;;9.05;7.55;;;;;;;2.73;100.00;98346.70;1738543;81;21066;-84
2021/12/19 07:18:59;;;;;;;9.73;7.70;;;;;;;2.74;100.00;98359.42;1766109;81;21086;-85
2021/12/19 07:21:28;;;;;;;9.65;7.80;;;;;;;2.73;100.00;98348.02;1782312;80;21516;-83
2021/12/19 07:23:54;;;;;;;11.08;8.75;;;;;;;2.72;100.00;98361.00;1792818;79;21154;-78
2021/12/19 07:26:20;;;;;;;10.28;7.72;;;;;;;2.71;100.00;98297.00;1777191;80;21019;-84
2021/12/19 07:28:49;;;;;;;11.22;7.87;;;;;;;2.74;100.00;98330.22;1777506;80;20972;-81
2021/12/19 07:31:19;;;;;;;10.28;7.35;;;;;;;2.75;100.00;98309.28;1836941;77;21458;-80
2021/12/19 07:33:48;;;;;;;8.38;6.85;;;;;;;2.72;100.00;98270.75;1838280;77;21000;-79
2021/12/19 07:36:18;;;;;;;10.20;8.05;;;;;;;2.76;100.00;98240.04;1801696;78;21070;-82
2021/12/19 07:38:55;;;;;;;9.40;7.90;;;;;;;2.79;100.00;98265.30;1825006;78;20992;-80
2021/12/19 07:41:18;;;;;;;7.78;6.62;;;;;;;2.81;100.00;98267.20;1824648;77;21555;-81
2021/12/19 07:43:45;;;;;;;9.55;7.50;;;;;;;2.80;100.00;98274.88;1818510;77;21705;-81
2021/12/19 07:46:15;;;;;;;12.55;8.28;;;;;;;2.80;100.00;98265.07;1824892;78;21660;-78
2021/12/19 07:48:41;;;;;;;10.70;7.08;;;;;;;2.81;100.00;98269.86;1824857;78;21084;-79
2021/12/19 07:51:08;;;;;;;11.78;8.23;;;;;;;2.84;100.00;98270.70;1802076;78;20970;-79
2021/12/19 07:53:35;;;;;;;9.08;7.53;;;;;;;2.84;100.00;98250.80;1828945;78;20991;-77
2021/12/19 07:56:01;;;;;;;10.10;8.13;;;;;;;2.83;100.00;98231.41;1829953;77;21012;-79
2021/12/19 07:58:30;;;;;;;9.40;7.97;;;;;;;2.87;100.00;98234.42;1842149;77;21004;-78
2021/12/19 08:00:59;;;;;;;11.28;9.13;;;;;;;2.89;100.00;98275.61;1791849;80;21541;-88
2021/12/19 08:03:25;;;;;;;9.38;7.62;;;;;;;2.90;100.00;98267.12;1792296;79;21010;-84
2021/12/19 08:05:52;;;;;;;12.15;9.60;;;;;;;2.91;100.00;98251.48;1823299;78;21361;-83
2021/12/19 08:08:25;;;;;;;12.60;8.75;;;;;;;2.89;100.00;98256.21;1822599;78;20990;-85
2021/12/19 08:13:14;;;;;;;14.93;9.33;;;;;;;2.88;100.00;98234.68;1823993;78;21116;-80
2021/12/19 08:15:42;;;;;;;9.58;7.78;;;;;;;2.90;100.00;98240.05;1820736;78;20952;-83
2021/12/19 08:18:08;;;;;;;12.58;9.18;;;;;;;2.94;100.00;98240.37;1834730;77;20983;-82
2021/12/19 08:20:35;;;;;;;16.97;8.83;;;;;;;2.98;100.00;98216.29;1820700;77;20992;-81
2021/12/19 08:23:04;;;;;;;14.07;9.60;;;;;;;3.01;100.00;98237.08;1754162;80;21150;-83
2021/12/19 08:25:31;;;;;;;14.03;9.60;;;;;;;3.04;100.00;98228.62;1821603;78;22781;-88
2021/12/19 08:28:01;;;;;;;16.87;10.23;;;;;;;3.04;100.00;98219.34;1810552;79;20994;-86
2021/12/19 08:30:28;;;;;;;12.37;8.15;;;;;;;3.04;100.00;98229.44;1803625;77;21492;-82
2021/12/19 08:32:58;;;;;;;15.83;9.55;;;;;;;3.07;100.00;98219.66;1813303;77;20963;-84
2021/12/19 08:35:27;;;;;;;13.38;9.28;;;;;;;3.07;100.00;98222.31;1791637;78;21061;-89
2021/12/19 08:37:53;;;;;;;12.53;8.73;;;;;;;3.10;100.00;98215.73;1827590;77;21365;-88
2021/12/19 08:40:23;;;;;;;14.63;9.88;;;;;;;3.13;100.00;98217.09;1797050;77;21714;-89
2021/12/19 08:42:52;;;;;;;19.35;9.83;;;;;;;3.15;100.00;98215.02;1838666;77;20948;-89
2021/12/19 08:45:22;;;;;;;15.15;9.28;;;;;;;3.14;100.00;98198.80;1800572;78;21070;-90
2021/12/19 08:47:49;;;;;;;13.40;8.98;;;;;;;3.13;100.00;98176.73;1786780;79;20978;-87
2021/12/19 08:50:17;;;;;;;13.60;8.20;;;;;;;3.13;100.00;98174.08;1786471;80;21647;-88
2021/12/19 08:52:45;;;;;;;10.40;7.85;;;;;;;3.14;100.00;98178.87;1822832;78;21082;-86
2021/12/19 08:55:13;;;;;;;11.03;8.03;;;;;;;3.17;100.00;98186.36;1798486;78;20977;-85
2021/12/19 08:57:40;;;;;;;13.48;7.95;;;;;;;3.17;100.00;98172.55;1828983;78;21015;-85
2021/12/19 09:00:13;;;;;;;12.35;8.10;;;;;;;3.17;100.00;98167.24;1771735;80;21015;-82
2021/12/19 09:02:43;;;;;;;13.05;7.75;;;;;;;3.14;100.00;98165.59;1816359;78;21977;-81
2021/12/19 09:05:11;;;;;;;11.12;8.60;;;;;;;3.12;100.00;98145.12;1825833;77;21039;-83
2021/12/19 09:07:40;;;;;;;11.30;7.80;;;;;;;3.08;100.00;98158.87;1824582;78;21035;-81
2021/12/19 09:10:10;;;;;;;8.23;6.00;;;;;;;3.07;100.00;98145.81;1824800;78;21011;-81
2021/12/19 09:12:38;;;;;;;8.60;6.85;;;;;;;3.10;100.00;98152.52;1824614;78;21028;-90
2021/12/19 09:15:06;;;;;;;10.18;7.08;;;;;;;3.12;100.00;98137.16;1822110;78;21130;-84
2021/12/19 09:17:34;;;;;;;13.72;7.30;;;;;;;3.07;100.00;98140.51;1817078;77;21012;-87
2021/12/19 09:20:07;;;;;;;9.23;5.95;;;;;;;3.07;100.00;98139.17;1801512;78;21475;-92
2021/12/19 09:22:36;;;;;;;9.48;6.25;;;;;;;3.08;100.00;98146.11;1802366;78;21040;-90
2021/12/19 09:25:11;;;;;;;7.58;5.75;;;;;;;3.03;100.00;98123.45;1799328;78;20965;-86
2021/12/19 09:27:41;;;;;;;9.08;6.85;;;;;;;3.01;100.00;98100.33;1826900;77;21438;-92
2021/12/19 09:30:17;;;;;;;9.48;6.72;;;;;;;2.98;100.00;98118.85;1803053;78;21044;-89
2021/12/19 09:32:47;;;;;;;6.08;4.90;;;;;;;2.95;100.00;98101.28;1819304;78;20979;-92
2021/12/19 09:35:28;;;;;;;7.03;5.58;;;;;;;2.92;100.00;98111.87;1823406;78;20937;-88
2021/12/19 09:38:00;;;;;;;7.28;5.33;;;;;;;2.90;100.00;98097.20;1801901;78;20928;-91
2021/12/19 09:40:35;;;;;;;7.42;4.92;;;;;;;2.89;100.00;98088.43;1823139;78;20986;-87
2021/12/19 09:43:20;;;;;;;7.42;5.20;;;;;;;2.90;100.00;98103.84;1825392;78;20957;-88
2021/12/19 09:45:43;;;;;;;9.45;5.47;;;;;;;2.89;100.00;98092.94;1805651;78;21140;-85
2021/12/19 09:48:11;;;;;;;6.45;4.67;;;;;;;2.87;100.00;98085.75;1801615;78;21047;-82
2021/12/19 09:50:42;;;;;;;8.53;6.00;;;;;;;2.84;100.00;98071.09;1803613;77;20961;-85
2021/12/19 09:53:09;;;;;;;5.95;4.78;;;;;;;2.80;100.00;98077.12;1826304;77;21016;-83
2021/12/19 09:55:46;;;;;;;6.45;4.30;;;;;;;2.77;100.00;98069.12;1825575;78;20979;-88
2021/12/19 09:58:16;;;;;;;6.80;4.70;;;;;;;2.75;100.00;98055.80;1819081;78;21044;-87
2021/12/19 10:00:53;;;;;;;6.20;4.62;;;;;;;2.72;100.00;98059.75;1803016;78;20929;-87
2021/12/19 10:03:25;;;;;;;6.05;4.22;;;;;;;2.73;100.00;98060.55;1826362;78;20962;-92
2021/12/19 10:09:26;;;;;;;8.28;4.47;;;;;;;2.70;100.00;98033.95;1793324;78;20974;-90
2021/12/19 10:12:12;;;;;;;7.17;4.87;;;;;;;2.66;100.00;98038.13;1811103;78;21046;-85
2021/12/19 10:14:59;;;;;;;5.50;4.47;;;;;;;2.63;100.00;98018.72;1817233;78;21690;-89
2021/12/19 10:17:30;;;;;;;5.67;4.53;;;;;;;2.58;100.00;98012.00;1801212;79;21289;-90
2021/12/19 10:20:02;;;;;;;6.97;4.78;;;;;;;2.58;100.00;98017.31;1803267;78;20954;-86
2021/12/19 10:22:43;;;;;;;5.25;3.67;;;;;;;2.57;100.00;98006.41;1820675;77;21064;-86
2021/12/19 10:25:37;;;;;;;7.20;4.62;;;;;;;2.58;100.00;97988.93;1833006;77;21077;-84
2021/12/19 10:28:12;;;;;;;5.97;4.65;;;;;;;2.62;100.00;97995.87;1822758;77;21071;-84
2021/12/19 10:30:46;;;;;;;6.95;5.22;;;;;;;2.68;100.00;97988.29;1818737;77;21006;-86
2021/12/19 10:33:23;;;;;;;5.62;4.25;;;;;;;2.72;100.00;97987.28;1807818;78;20959;-88
2021/12/19 10:35:54;;;;;;;7.12;6.05;;;;;;;2.76;100.00;97976.45;1808106;78;20911;-83
2021/12/19 10:38:37;;;;;;;7.10;4.80;;;;;;;2.78;100.00;97969.07;1808584;78;20971;-84
2021/12/19 10:41:23;;;;;;;5.80;4.25;;;;;;;2.80;100.00;97956.34;1819538;78;21610;-85
2021/12/19 10:44:00;;;;;;;6.05;4.47;;;;;;;2.84;100.00;97961.44;1808317;78;21465;-83
2021/12/19 10:46:50;;;;;;;5.75;4.60;;;;;;;2.86;100.00;97930.97;1808388;78;21527;-83
2021/12/19 10:49:24;;;;;;;;;;;;;;;2.89;100.00;97930.47;1811228;78;20947;-86
2021/12/19 10:52:05;;;;;;;8.20;4.75;;;;;;;2.94;100.00;97937.19;1818975;78;20423;-82
2021/12/19 10:54:35;;;;;;;5.33;4.30;;;;;;;2.98;100.00;97917.58;1793252;79;20964;-83
2021/12/19 10:57:10;;;;;;;6.87;5.33;;;;;;;3.03;100.00;97917.66;1808505;79;20923;-83
2021/12/19 10:59:45;;;;;;;7.62;5.12;;;;;;;3.06;100.00;97914.53;1819786;78;21114;-82
2021/12/19 11:02:14;;;;;;;7.20;5.50;;;;;;;3.08;100.00;97904.45;1792584;79;21508;-81
2021/12/19 11:04:43;;;;;;;7.42;4.53;;;;;;;3.10;100.00;97906.34;1809064;78;20935;-83
2021/12/19 11:07:16;;;;;;;6.00;4.22;;;;;;;3.14;100.00;97898.16;1757819;79;20923;-79
2021/12/19 11:09:52;;;;;;;6.90;4.20;;;;;;;3.18;100.00;97897.94;1758891;79;20952;-81
2021/12/19 11:12:26;;;;;;;7.20;4.87;;;;;;;3.23;100.00;97898.53;1810703;78;21090;-83
2021/12/19 11:15:04;;;;;;;7.00;5.85;;;;;;;3.29;100.00;97878.95;1808985;79;20896;-86
2021/12/19 11:17:35;;;;;;;6.85;4.53;;;;;;;3.36;100.00;97883.02;1810961;78;20936;-81
2021/12/19 11:20:06;;;;;;;6.55;4.50;;;;;;;3.41;100.00;97880.42;1770341;78;20955;-82
2021/12/19 11:22:36;;;;;;;7.53;5.30;;;;;;;3.45;100.00;97873.56;1809946;78;20974;-79
2021/12/19 11:25:04;;;;;;;5.42;4.90;;;;;;;3.49;100.00;97873.89;1809606;78;21928;-76
2021/12/19 11:27:32;;;;;;;5.17;3.90;;;;;;;3.54;100.00;97861.19;1808414;79;20995;-79
2021/12/19 11:30:01;;;;;;;6.30;4.40;;;;;;;3.59;100.00;97858.06;1808734;78;21046;-77
2021/12/19 11:32:51;;;;;;;5.08;4.22;;;;;;;3.64;100.00;97883.89;1781641;79;21031;-82
2021/12/19 11:35:23;;;;;;;4.30;3.72;;;;;;;3.67;100.00;97860.78;1819480;78;20964;-85
2021/12/19 11:37:57;;;;;;;5.70;3.90;;;;;;;3.72;100.00;97858.98;1781895;79;21137;-80
2021/12/19 11:40:31;;;;;;;4.67;3.33;;;;;;;3.77;100.00;97848.92;1808470;79;21508;-79
2021/12/19 11:43:22;;;;;;;3.98;3.15;;;;;;;3.79;100.00;97845.50;1817294;78;21013;-82
2021/12/19 11:46:00;;;;;;;4.08;3.08;;;;;;;3.81;100.00;97868.64;1808555;78;21047;-82
2021/12/19 11:48:34;;;;;;;3.15;2.80;;;;;;;3.84;100.00;97836.22;1795394;80;21054;-82
2021/12/19 11:51:20;;;;;;;5.20;3.52;;;;;;;3.85;100.00;97841.30;1770139;80;40413;-84
2021/12/19 11:53:46;;;;;;;;;;;;;;;3.90;100.00;97833.36;1830237;78;20946;-81
2021/12/19 11:56:17;;;;;;;3.30;3.00;;;;;;;3.92;100.00;97841.10;1827248;78;20200;-84
2021/12/19 11:58:49;;;;;;;3.00;2.67;;;;;;;3.92;100.00;97837.91;1811721;77;21031;-83
2021/12/19 12:01:28;;;;;;;3.52;3.22;;;;;;;4.00;100.00;97841.16;1840998;77;21034;-86
2021/12/19 12:04:04;;;;;;;3.75;3.05;;;;;;;4.00;100.00;97841.16;1802326;78;21129;-85
2021/12/19 12:06:36;;;;;;;3.17;2.75;;;;;;;4.04;100.00;97820.97;1826583;78;20974;-84
2021/12/19 12:09:13;;;;;;;3.90;3.02;;;;;;;4.07;100.00;97836.45;1827703;78;21057;-85
2021/12/19 12:12:04;;;;;;;3.47;3.17;;;;;;;4.11;100.00;97814.41;1827279;78;21092;-85
2021/12/19 12:14:38;;;;;;;3.50;3.20;;;;;;;4.11;100.00;97814.41;1827492;78;21097;-84
2021/12/19 12:17:18;;;;;;;3.12;2.72;;;;;;;4.16;100.00;97820.29;1824381;78;20917;-84
2021/12/19 12:19:56;;;;;;;5.53;2.87;;;;;;;4.17;100.00;97820.02;1811495;77;21035;-85
2021/12/19 12:22:41;;;;;;;3.95;3.55;;;;;;;4.19;100.00;97820.58;1765201;80;20944;-85
2021/12/19 12:25:31;;;;;;;2.55;2.27;;;;;;;4.20;100.00;97818.72;1781286;80;20944;-86
2021/12/19 12:28:09;;;;;;;6.17;3.33;;;;;;;4.17;100.00;97808.05;1787628;80;21477;-88
2021/12/19 12:30:48;;;;;;;4.10;2.80;;;;;;;4.19;100.00;97815.78;1767599;80;21518;-90
2021/12/19 12:33:20;;;;;;;3.47;2.12;;;;;;;4.19;100.00;97825.89;1767082;80;20971;-88
2021/12/19 12:35:50;;;;;;;2.60;2.05;;;;;;;4.15;100.00;97822.14;1785454;80;21079;-87
2021/12/19 12:38:20;;;;;;;3.25;2.40;;;;;;;4.15;100.00;97822.14;1786776;80;21051;-84
2021/12/19 12:43:18;;;;;;;3.00;2.17;;;;;;;4.13;100.00;97819.45;1786492;80;21878;-82
2021/12/19 12:46:09;;;;;;;2.10;1.90;;;;;;;4.12;100.00;97839.15;1786907;80;21017;-80
2021/12/19 12:48:42;;;;;;;1.72;1.62;;;;;;;4.11;100.00;97811.74;1780994;80;21504;-81